Time;durP1;ratioP1;P1;durP2;ratioP2;P2;SDS_P1;SDS_P2;PMS_P1;PMS_P2;Temp;Humidity;BMP_temperature;BMP_pressure;BME280_temperature;BME280_humidity;BME280_pressure;Samples;Min_cycle;Max_cycle;Signal;HPM_P1;HPM_P2
2022/05/04 00:00:02;;;;;;;20.23;9.15;;;;;;;10.18;73.39;92613.00;5030722;28;20475;-76
2022/05/04 00:02:38;;;;;;;17.92;9.25;;;;;;;10.21;73.41;92607.19;5032203;28;20491;-76
2022/05/04 00:05:06;;;;;;;17.33;9.20;;;;;;;10.21;73.79;92611.66;5031506;28;20056;-76
2022/05/04 00:07:31;;;;;;;19.27;9.45;;;;;;;10.19;74.00;92604.06;5031310;28;20042;-76
2022/05/04 00:09:58;;;;;;;16.73;8.73;;;;;;;10.15;73.91;92597.84;5045379;28;20041;-77
2022/05/04 00:12:25;;;;;;;18.10;8.57;;;;;;;10.19;74.00;92606.69;5030964;28;20060;-76
2022/05/04 00:14:51;;;;;;;20.60;8.27;;;;;;;10.19;72.50;92614.53;5031624;28;20038;-77
2022/05/04 00:17:17;;;;;;;18.33;8.07;;;;;;;10.20;71.14;92600.41;5015170;28;20038;-76
2022/05/04 00:19:43;;;;;;;24.38;8.77;;;;;;;10.21;71.54;92601.19;5011278;28;20084;-76
2022/05/04 00:22:08;;;;;;;17.00;8.20;;;;;;;10.24;72.20;92605.06;5027986;28;20038;-76
2022/05/04 00:24:34;;;;;;;18.38;8.00;;;;;;;10.24;72.48;92605.06;5031842;28;20037;-76
2022/05/04 00:26:59;;;;;;;14.77;7.70;;;;;;;10.19;73.04;92601.47;5026545;28;20029;-76
2022/05/04 00:29:25;;;;;;;18.90;7.75;;;;;;;10.16;73.73;92599.41;5029760;28;20053;-76
2022/05/04 00:31:51;;;;;;;16.63;7.75;;;;;;;10.18;72.29;92602.53;5031760;28;20042;-76
2022/05/04 00:34:16;;;;;;;20.88;8.20;;;;;;;10.18;73.06;92601.75;5011711;28;20041;-76
2022/05/04 00:36:42;;;;;;;18.60;8.85;;;;;;;10.14;74.20;92603.38;5012047;28;20479;-76
2022/05/04 00:39:08;;;;;;;17.52;9.10;;;;;;;10.11;74.62;92606.53;5030758;28;20043;-76
2022/05/04 00:41:33;;;;;;;14.60;7.78;;;;;;;10.06;75.05;92596.91;5045161;28;20411;-76
2022/05/04 00:43:59;;;;;;;16.50;8.45;;;;;;;10.01;75.10;92596.97;5031476;28;20055;-76
2022/05/04 00:46:25;;;;;;;18.70;8.48;;;;;;;10.00;75.69;92600.66;5021457;28;20030;-76
2022/05/04 00:48:50;;;;;;;19.70;8.43;;;;;;;9.97;75.69;92599.38;5021557;28;20048;-76
2022/05/04 00:51:17;;;;;;;18.65;8.05;;;;;;;9.92;76.19;92596.03;5026861;28;20053;-76
2022/05/04 00:53:44;;;;;;;14.65;7.78;;;;;;;9.87;76.38;92596.88;5024239;28;20128;-76
2022/05/04 00:56:11;;;;;;;13.88;7.60;;;;;;;9.86;76.25;92599.75;5030618;28;20033;-76
2022/05/04 00:58:56;;;;;;;12.25;6.93;;;;;;;9.85;75.49;92603.44;5010820;28;20494;-77
2022/05/04 01:01:26;;;;;;;19.48;7.57;;;;;;;9.89;75.33;92601.84;5021214;28;20034;-77
2022/05/04 01:03:53;;;;;;;14.52;7.60;;;;;;;9.85;75.33;92598.97;5031170;28;20029;-77
2022/05/04 01:06:19;;;;;;;14.65;6.93;;;;;;;9.88;75.06;92603.66;5027448;28;20036;-76
2022/05/04 01:08:45;;;;;;;14.57;7.28;;;;;;;9.83;74.77;92610.78;5028607;28;20033;-77
2022/05/04 01:11:10;;;;;;;18.88;7.90;;;;;;;9.79;75.67;92608.72;5029364;28;20042;-76
2022/05/04 01:13:36;;;;;;;16.27;7.28;;;;;;;9.79;75.59;92605.31;5013477;28;20074;-76
2022/05/04 01:16:02;;;;;;;15.65;8.18;;;;;;;9.74;75.94;92608.00;5030025;28;20037;-76
2022/05/04 01:18:27;;;;;;;12.23;7.05;;;;;;;9.73;76.27;92602.00;5029533;28;20037;-76
2022/05/04 01:20:53;;;;;;;11.80;6.88;;;;;;;9.70;76.04;92599.91;5045186;28;20430;-76
2022/05/04 01:23:19;;;;;;;12.98;6.78;;;;;;;9.72;75.19;92602.25;5012253;28;20116;-76
2022/05/04 01:25:45;;;;;;;10.93;6.40;;;;;;;9.77;73.23;92596.97;5013252;28;20042;-76
2022/05/04 01:28:11;;;;;;;17.13;6.93;;;;;;;9.82;72.42;92603.97;4995258;28;20034;-76
2022/05/04 01:30:37;;;;;;;13.40;6.82;;;;;;;9.91;72.38;92607.56;5011027;28;20038;-76
2022/05/04 01:33:03;;;;;;;12.90;6.93;;;;;;;9.93;72.86;92610.66;5009698;28;20076;-76
2022/05/04 01:35:29;;;;;;;15.05;7.25;;;;;;;9.90;73.69;92611.22;5011060;28;20177;-76
2022/05/04 01:37:55;;;;;;;15.75;7.78;;;;;;;9.86;73.76;92602.38;5016836;28;20490;-76
2022/05/04 01:40:20;;;;;;;12.05;6.80;;;;;;;9.85;74.20;92606.06;5012517;28;20025;-77
2022/05/04 01:42:46;;;;;;;16.00;6.88;;;;;;;9.79;74.35;92605.31;5013744;28;20069;-76
2022/05/04 01:45:12;;;;;;;14.35;6.50;;;;;;;9.82;74.19;92610.00;5015968;28;20451;-76
2022/05/04 01:47:38;;;;;;;16.55;6.35;;;;;;;9.80;74.62;92612.88;5034883;28;20041;-76
2022/05/04 01:50:04;;;;;;;14.13;6.93;;;;;;;9.80;74.73;92612.13;5027541;28;20049;-76
2022/05/04 01:52:30;;;;;;;15.02;7.05;;;;;;;9.83;74.40;92610.78;5015400;28;20415;-76
2022/05/04 01:54:58;;;;;;;14.27;6.30;;;;;;;9.83;74.41;92610.78;5022678;28;20487;-76
2022/05/04 01:57:24;;;;;;;12.20;6.95;;;;;;;9.83;75.10;92614.16;5034646;28;20487;-76
2022/05/04 01:59:50;;;;;;;14.50;7.05;;;;;;;9.87;75.54;92617.78;5028092;28;20033;-76
2022/05/04 02:02:15;;;;;;;15.82;7.03;;;;;;;9.88;75.71;92615.94;5030541;28;20084;-76
2022/05/04 02:04:41;;;;;;;13.02;6.88;;;;;;;9.85;76.09;92617.28;5034468;28;20031;-76
2022/05/04 02:07:08;;;;;;;13.77;7.20;;;;;;;9.81;76.52;92616.28;5034458;28;20034;-76
2022/05/04 02:09:36;;;;;;;12.90;6.78;;;;;;;9.86;77.17;92615.44;5034444;28;20537;-76
2022/05/04 02:12:03;;;;;;;15.40;7.30;;;;;;;9.80;77.05;92618.13;5032810;28;20087;-76
2022/05/04 02:14:29;;;;;;;14.23;7.22;;;;;;;9.77;77.28;92623.09;5033232;28;20128;-76
2022/05/04 02:16:55;;;;;;;14.63;7.78;;;;;;;9.75;77.51;92620.78;5033283;28;20604;-76
2022/05/04 02:19:20;;;;;;;14.40;7.20;;;;;;;9.72;77.75;92616.09;5034454;28;20033;-76
2022/05/04 02:21:46;;;;;;;13.63;6.90;;;;;;;9.73;77.98;92615.06;5020311;28;20037;-76
2022/05/04 02:24:12;;;;;;;13.75;7.38;;;;;;;9.72;77.83;92610.88;5014807;28;20130;-77
2022/05/04 02:26:37;;;;;;;14.20;7.30;;;;;;;9.71;78.23;92609.31;5022675;28;20578;-76
2022/05/04 02:29:03;;;;;;;13.32;7.38;;;;;;;9.73;78.32;92617.69;5034179;28;20053;-76
2022/05/04 02:31:28;;;;;;;15.38;7.20;;;;;;;9.74;78.84;92619.22;5025879;28;20098;-76
2022/05/04 02:33:54;;;;;;;16.65;7.50;;;;;;;9.72;79.00;92610.88;5013009;28;20034;-76
2022/05/04 02:39:04;;;;;;;11.27;6.97;;;;;;;9.73;80.01;92611.69;5013038;28;20045;-76
2022/05/04 02:41:30;;;;;;;12.00;7.40;;;;;;;9.75;80.28;92610.34;5015772;28;20026;-76
2022/05/04 02:43:55;;;;;;;18.15;7.88;;;;;;;9.68;80.42;92609.09;5012673;28;20080;-76
2022/05/04 02:46:23;;;;;;;12.23;7.47;;;;;;;9.69;79.79;92616.66;5025255;28;20069;-76
2022/05/04 02:48:48;;;;;;;12.25;6.97;;;;;;;9.79;77.95;92618.38;5034006;28;20069;-76
2022/05/04 02:51:14;;;;;;;13.35;6.85;;;;;;;9.77;78.05;92612.66;5047385;28;20092;-76
2022/05/04 02:53:41;;;;;;;13.32;6.82;;;;;;;9.74;78.28;92614.00;5031352;28;20394;-76
2022/05/04 02:56:08;;;;;;;18.10;7.78;;;;;;;9.73;78.50;92614.28;5032746;28;20104;-76
2022/05/04 02:58:34;;;;;;;14.38;6.80;;;;;;;9.70;78.67;92612.97;5033737;28;20209;-76
2022/05/04 03:04:04;;;;;;;14.68;7.10;;;;;;;9.69;79.47;92616.66;5033327;28;20399;-76
2022/05/04 03:06:30;;;;;;;15.50;7.38;;;;;;;9.70;79.68;92612.22;5032150;28;20041;-76
2022/05/04 03:08:55;;;;;;;15.35;6.80;;;;;;;9.72;77.86;92620.56;5032134;28;20032;-76
2022/05/04 03:14:07;;;;;;;12.00;6.50;;;;;;;9.69;77.68;92608.81;5028561;28;20121;-76
2022/05/04 03:16:36;;;;;;;12.23;6.60;;;;;;;9.72;77.82;92616.09;5018919;28;20096;-76
2022/05/04 03:19:04;;;;;;;11.18;6.68;;;;;;;9.73;78.26;92612.44;5013686;28;20132;-77
2022/05/04 03:21:29;;;;;;;15.88;7.13;;;;;;;9.76;77.51;92616.34;5015115;28;20042;-76
2022/05/04 03:23:55;;;;;;;13.95;7.32;;;;;;;9.76;76.74;92617.09;5013840;28;20029;-76
2022/05/04 03:26:21;;;;;;;15.77;7.50;;;;;;;9.79;75.91;92615.78;4995892;28;20041;-76
2022/05/04 03:28:46;;;;;;;12.43;6.85;;;;;;;9.82;75.49;92627.50;5013418;28;20068;-76
2022/05/04 03:31:12;;;;;;;16.95;7.18;;;;;;;9.82;74.77;92619.66;5019594;28;20040;-76
2022/05/04 03:33:38;;;;;;;15.57;7.32;;;;;;;9.83;75.41;92621.25;5028671;28;20034;-76
2022/05/04 03:36:04;;;;;;;13.23;7.43;;;;;;;9.85;75.59;92619.91;5030851;28;20419;-76
2022/05/04 03:38:30;;;;;;;18.67;7.53;;;;;;;9.85;76.13;92626.97;5032960;28;20029;-76
2022/05/04 03:40:55;;;;;;;13.95;6.90;;;;;;;9.80;77.03;92623.34;5033496;28;20033;-77
2022/05/04 03:43:21;;;;;;;12.82;7.78;;;;;;;9.84;78.09;92628.81;5031194;28;20037;-76
2022/05/04 03:45:46;;;;;;;12.48;7.55;;;;;;;9.72;78.66;92626.56;5024009;28;20044;-76
2022/05/04 03:48:12;;;;;;;16.23;7.50;;;;;;;9.59;79.79;92627.22;5032652;28;20025;-76
2022/05/04 03:50:37;;;;;;;14.05;7.18;;;;;;;9.55;80.25;92632.22;5032661;28;20293;-76
2022/05/04 03:53:03;;;;;;;20.63;7.90;;;;;;;9.53;80.71;92629.09;5013953;28;20046;-76
2022/05/04 03:55:29;;;;;;;12.98;7.80;;;;;;;9.52;81.31;92632.75;5018621;28;20037;-76
2022/05/04 03:57:54;;;;;;;14.02;7.68;;;;;;;9.54;81.20;92632.50;5004791;28;20060;-77
2022/05/04 04:00:20;;;;;;;14.73;7.68;;;;;;;9.53;81.26;92633.56;5022823;28;20033;-76
2022/05/04 04:02:46;;;;;;;15.15;7.93;;;;;;;9.52;81.66;92637.22;5017289;28;20045;-77
2022/05/04 04:05:12;;;;;;;14.73;7.70;;;;;;;9.51;82.21;92640.88;5024587;28;20120;-77
2022/05/04 04:07:38;;;;;;;15.75;7.53;;;;;;;9.54;82.39;92640.31;5023025;28;20125;-76
2022/05/04 04:10:04;;;;;;;13.05;7.78;;;;;;;9.50;82.23;92641.94;5012570;28;20399;-75
2022/05/04 04:12:30;;;;;;;13.82;7.93;;;;;;;9.46;82.41;92648.78;5013212;28;20052;-76
2022/05/04 04:14:56;;;;;;;13.27;7.72;;;;;;;9.45;82.97;92639.38;5028141;28;20041;-76
2022/05/04 04:17:21;;;;;;;15.15;7.60;;;;;;;9.45;83.41;92641.97;5032114;28;20033;-76
2022/05/04 04:21:50;;;;;;;15.05;7.20;;;;;;;9.44;83.52;92654.28;5023164;28;20045;-75
2022/05/04 04:22:32;;;;;;;14.25;7.15;;;;;;;9.46;83.19;92648.78;5016784;28;20033;-75
2022/05/04 04:24:58;;;;;;;13.93;7.43;;;;;;;9.49;83.51;92658.66;5013680;28;20049;-77
2022/05/04 04:27:23;;;;;;;20.30;8.00;;;;;;;9.48;84.20;92652.66;5023889;28;20430;-78
2022/05/04 04:29:49;;;;;;;12.95;7.45;;;;;;;9.53;83.88;92654.47;5035113;28;20026;-78
2022/05/04 04:32:14;;;;;;;14.07;8.02;;;;;;;9.54;84.17;92656.00;5022356;28;20044;-77
2022/05/04 04:34:40;;;;;;;12.00;7.18;;;;;;;9.63;83.37;92658.81;5020047;28;20041;-78
2022/05/04 04:37:05;;;;;;;12.93;7.40;;;;;;;9.61;83.10;92659.06;5023051;28;20029;-78
2022/05/04 04:39:32;;;;;;;12.68;7.32;;;;;;;9.63;82.46;92658.81;5021356;28;20104;-78
2022/05/04 04:41:58;;;;;;;19.23;9.88;;;;;;;9.61;83.30;92660.91;5021415;28;20037;-77
2022/05/04 04:44:23;;;;;;;15.38;7.78;;;;;;;9.62;83.10;92659.88;4987814;28;20026;-78
2022/05/04 04:46:49;;;;;;;13.25;7.60;;;;;;;9.63;84.28;92664.81;5025068;28;20045;-78
2022/05/04 04:49:15;;;;;;;12.10;7.10;;;;;;;9.63;84.36;92670.03;5037454;28;20137;-78
2022/05/04 04:51:40;;;;;;;16.35;7.88;;;;;;;9.61;84.05;92661.69;5021894;28;20385;-78
2022/05/04 04:54:06;;;;;;;13.50;7.22;;;;;;;9.60;84.55;92667.97;5018100;28;20041;-78
2022/05/04 04:56:32;;;;;;;12.70;7.47;;;;;;;9.61;84.69;92660.91;5016363;28;20049;-78
2022/05/04 04:58:57;;;;;;;16.85;7.40;;;;;;;9.64;85.32;92665.63;5015897;28;20112;-78
2022/05/04 05:01:23;;;;;;;15.75;7.65;;;;;;;9.62;85.96;92665.88;5016076;28;20041;-77
2022/05/04 05:03:49;;;;;;;13.27;7.32;;;;;;;9.64;86.50;92669.00;5033411;28;20099;-78
2022/05/04 05:06:18;;;;;;;18.40;8.20;;;;;;;9.65;86.76;92673.16;5032388;28;20104;-78
2022/05/04 05:08:44;;;;;;;17.45;7.75;;;;;;;9.66;87.20;92672.13;5015533;28;20446;-78
2022/05/04 05:11:10;;;;;;;12.57;7.00;;;;;;;9.65;87.51;92675.78;5015862;28;20034;-79
2022/05/04 05:16:06;;;;;;;14.70;7.25;;;;;;;9.66;86.74;92679.16;5022520;28;20056;-79
2022/05/04 05:16:24;;;;;;;16.50;7.70;;;;;;;9.67;86.63;92668.44;5016923;28;20105;-81
2022/05/04 05:18:50;;;;;;;16.52;7.50;;;;;;;9.68;86.63;92671.81;5035411;28;20076;-80
2022/05/04 05:21:16;;;;;;;14.93;8.50;;;;;;;9.73;86.56;92672.56;5037424;28;20041;-79
2022/05/04 05:23:42;;;;;;;15.93;8.05;;;;;;;9.75;86.51;92673.06;5031657;28;20029;-78
2022/05/04 05:26:07;;;;;;;13.88;7.18;;;;;;;9.71;86.34;92669.44;5019292;28;20042;-80
2022/05/04 05:28:33;;;;;;;11.40;6.90;;;;;;;9.77;85.56;92673.59;5029552;28;20075;-78
2022/05/04 05:30:58;;;;;;;12.80;7.00;;;;;;;9.73;85.06;92664.72;5025668;28;20453;-79
2022/05/04 05:33:24;;;;;;;15.63;7.40;;;;;;;9.79;84.78;92679.31;5020822;28;20064;-79
2022/05/04 05:35:50;;;;;;;15.77;7.90;;;;;;;9.82;84.62;92682.41;5028054;28;20484;-79
2022/05/04 05:38:16;;;;;;;17.35;6.93;;;;;;;9.82;84.83;92682.41;5032753;28;20036;-79
2022/05/04 05:40:42;;;;;;;16.05;7.65;;;;;;;9.83;84.79;92681.38;5023995;28;20065;-79
2022/05/04 05:43:08;;;;;;;13.25;7.20;;;;;;;9.86;84.84;92686.03;5015321;28;20041;-79
2022/05/04 05:46:12;;;;;;;16.02;8.05;;;;;;;9.90;85.78;92690.44;5014852;28;20409;-79
2022/05/04 05:48:37;;;;;;;15.38;7.97;;;;;;;9.97;87.08;92684.88;5034919;28;20044;-80
2022/05/04 05:51:05;;;;;;;16.58;7.63;;;;;;;10.00;86.71;92692.97;5017599;28;20054;-78
2022/05/04 05:53:31;;;;;;;13.93;7.45;;;;;;;10.06;87.13;92700.75;5012214;28;20069;-79
2022/05/04 05:55:57;;;;;;;16.02;7.65;;;;;;;10.09;86.79;92697.59;5014086;28;20044;-78
2022/05/04 05:58:22;;;;;;;15.55;7.97;;;;;;;10.18;86.55;92701.16;5012577;28;20046;-79
2022/05/04 06:00:49;;;;;;;17.35;9.00;;;;;;;10.27;88.63;92709.97;5028066;28;20034;-78
2022/05/04 06:03:16;;;;;;;16.75;8.43;;;;;;;10.38;89.39;92708.81;5016458;28;20061;-79
2022/05/04 06:05:43;;;;;;;14.50;8.50;;;;;;;10.45;90.98;92702.47;5020748;28;20045;-79
2022/05/04 06:08:09;;;;;;;19.75;8.60;;;;;;;10.50;90.14;92707.66;5021699;28;20037;-80
2022/05/04 06:10:39;;;;;;;15.05;8.30;;;;;;;10.54;90.06;92703.41;5034660;28;20065;-80
2022/05/04 06:13:06;;;;;;;14.63;8.10;;;;;;;10.55;89.52;92705.75;5026209;28;20044;-80
2022/05/04 06:15:32;;;;;;;18.80;8.80;;;;;;;10.65;91.35;92704.84;5029041;28;20056;-78
2022/05/04 06:17:58;;;;;;;19.40;9.00;;;;;;;10.59;86.51;92705.97;5031842;28;20026;-79
2022/05/04 06:20:24;;;;;;;18.15;8.70;;;;;;;10.71;87.00;92708.19;5018779;28;20036;-79
2022/05/04 06:22:53;;;;;;;14.98;8.13;;;;;;;10.65;87.31;92704.84;5021439;28;20484;-79
2022/05/04 06:25:19;;;;;;;16.48;8.10;;;;;;;10.68;87.29;92703.50;5018245;28;20124;-79
2022/05/04 06:27:44;;;;;;;16.27;8.15;;;;;;;10.69;87.53;92703.22;5014515;28;20064;-79
2022/05/04 06:35:57;;;;;;;16.90;7.60;;;;;;;10.58;83.49;92709.63;5028271;28;20029;-79
2022/05/04 06:38:23;;;;;;;15.77;7.50;;;;;;;10.55;82.57;92713.59;5037275;28;20068;-79
2022/05/04 06:40:49;;;;;;;18.10;8.23;;;;;;;10.53;83.49;92712.31;5019920;28;20391;-79
2022/05/04 06:43:14;;;;;;;19.85;9.23;;;;;;;10.50;83.70;92713.66;5018049;28;20026;-79
2022/05/04 06:45:40;;;;;;;15.80;8.02;;;;;;;10.49;83.28;92721.78;5024410;28;20044;-79
2022/05/04 06:48:07;;;;;;;19.42;8.50;;;;;;;10.44;83.11;92717.38;5016391;28;20446;-80
2022/05/04 06:50:34;;;;;;;13.48;7.95;;;;;;;10.39;83.41;92712.22;5033364;28;20053;-80
2022/05/04 06:53:00;;;;;;;17.20;7.88;;;;;;;10.36;84.00;92721.41;5016984;28;20045;-80
2022/05/04 06:55:44;;;;;;;20.00;8.75;;;;;;;10.34;84.92;92720.13;5024394;28;20060;-80
2022/05/04 06:58:10;;;;;;;18.67;9.38;;;;;;;10.33;85.38;92719.31;5026380;28;20041;-80
2022/05/04 07:00:36;;;;;;;17.00;8.68;;;;;;;10.33;85.04;92726.41;5018964;28;20068;-80
2022/05/04 07:03:02;;;;;;;21.23;8.60;;;;;;;10.32;84.49;92717.78;5027441;28;20038;-80
2022/05/04 07:05:27;;;;;;;17.80;9.07;;;;;;;10.34;84.50;92720.13;5037732;28;20033;-80
2022/05/04 07:08:12;;;;;;;18.10;8.63;;;;;;;10.33;84.39;92721.94;5034667;28;20083;-80
2022/05/04 07:10:37;;;;;;;17.63;8.52;;;;;;;10.35;84.18;92727.69;5020594;28;20448;-80
2022/05/04 07:13:03;;;;;;;19.52;8.77;;;;;;;10.37;84.15;92720.34;5037486;28;20171;-80
2022/05/04 07:16:08;;;;;;;22.08;8.57;;;;;;;10.39;83.63;92728.69;5040918;28;20033;-80
2022/05/04 07:18:34;;;;;;;22.20;8.43;;;;;;;10.43;83.07;92723.69;5058656;28;20498;-81
2022/05/04 07:20:59;;;;;;;22.80;8.82;;;;;;;10.43;82.56;92721.06;5042386;28;20042;-81
2022/05/04 07:30:47;;;;;;;20.70;9.07;;;;;;;10.43;82.88;92718.47;5023950;28;20380;-80
2022/05/04 07:33:32;;;;;;;24.65;12.55;;;;;;;10.53;84.55;92722.78;5040971;28;20056;-80
2022/05/04 07:35:58;;;;;;;172.18;17.83;;;;;;;10.44;89.75;92730.47;5051140;28;20041;-80
2022/05/04 07:38:23;;;;;;;34.95;15.50;;;;;;;10.50;90.82;92723.34;5020797;28;20110;-80
2022/05/04 07:44:18;;;;;;;34.53;14.15;;;;;;;10.67;91.34;92723.66;5035747;28;20038;-80
2022/05/04 07:50:13;;;;;;;33.38;13.02;;;;;;;10.49;93.11;92729.63;5027057;28;20041;-80
2022/05/04 07:52:39;;;;;;;29.52;13.13;;;;;;;10.59;91.84;92727.69;5019784;28;20120;-81
2022/05/04 07:55:05;;;;;;;36.35;13.20;;;;;;;10.63;92.12;92733.16;5019362;28;20041;-80
2022/05/04 07:57:32;;;;;;;37.95;13.55;;;;;;;10.73;92.43;92730.41;5014682;28;20079;-80
2022/05/04 08:05:39;;;;;;;26.23;12.48;;;;;;;11.12;88.36;92739.06;5017454;28;20117;-80
2022/05/04 08:08:05;;;;;;;33.63;11.82;;;;;;;11.04;88.59;92738.66;5017936;28;20508;-80
2022/05/04 08:13:53;;;;;;;25.77;11.73;;;;;;;11.07;88.48;92736.53;5029113;28;20045;-80
2022/05/04 08:19:45;;;;;;;18.77;9.57;;;;;;;11.16;83.41;92745.31;5019069;28;20041;-81
2022/05/04 08:22:14;;;;;;;26.10;8.57;;;;;;;11.21;82.32;92743.41;5018520;28;20038;-81
2022/05/04 08:28:34;;;;;;;20.70;8.68;;;;;;;11.22;78.94;92750.22;5019016;28;20410;-81
2022/05/04 08:34:54;;;;;;;20.88;9.10;;;;;;;11.27;79.28;92754.59;5018331;28;20037;-81
2022/05/04 08:41:14;;;;;;;21.77;8.70;;;;;;;11.31;81.80;92757.44;5018972;28;20102;-80
2022/05/04 08:47:36;;;;;;;15.60;8.65;;;;;;;11.35;85.99;92759.22;5018140;28;20064;-80
2022/05/04 08:50:34;;;;;;;15.18;8.48;;;;;;;11.36;88.21;92754.75;5011983;28;20065;-80
2022/05/04 08:53:04;;;;;;;20.42;9.50;;;;;;;11.29;89.76;92756.94;4996546;28;20038;-79
2022/05/04 08:55:30;;;;;;;20.77;9.90;;;;;;;11.24;88.70;92763.03;4996181;28;20034;-80
2022/05/04 08:57:56;;;;;;;18.63;9.25;;;;;;;11.18;89.63;92758.91;4996174;28;20045;-80
2022/05/04 09:00:22;;;;;;;19.30;9.25;;;;;;;11.23;89.63;92762.22;4998692;28;20061;-80
2022/05/04 09:02:48;;;;;;;14.82;9.02;;;;;;;11.19;89.48;92763.88;4980733;28;20480;-80
2022/05/04 09:09:10;;;;;;;15.30;8.35;;;;;;;11.19;89.30;92765.69;4999074;28;20069;-80
2022/05/04 09:12:15;;;;;;;15.85;8.88;;;;;;;11.19;89.97;92768.31;4998839;28;20100;-80
2022/05/04 09:14:43;;;;;;;18.10;8.25;;;;;;;11.29;92.02;92776.06;4997967;28;20042;-80
2022/05/04 09:17:10;;;;;;;20.88;9.40;;;;;;;11.15;93.48;92775.22;4998758;28;20035;-82
2022/05/04 09:20:45;;;;;;;20.60;9.88;;;;;;;11.13;92.57;92780.72;4999384;28;20034;-81
2022/05/04 09:25:23;;;;;;;24.38;10.63;;;;;;;11.06;91.94;92782.16;5037041;28;20521;-79
2022/05/04 09:27:48;;;;;;;21.15;10.13;;;;;;;11.00;92.87;92771.72;5037652;28;20494;-80
2022/05/04 09:30:15;;;;;;;19.35;10.88;;;;;;;10.98;93.74;92776.44;5039395;28;20041;-79
2022/05/04 09:32:42;;;;;;;18.40;9.23;;;;;;;10.94;93.89;92780.72;5012936;28;20037;-80
2022/05/04 09:35:13;;;;;;;20.73;9.73;;;;;;;10.80;94.36;92790.28;5001214;28;20074;-80
2022/05/04 09:46:08;;;;;;;18.95;10.45;;;;;;;10.67;96.20;92796.19;4999941;28;20042;-80
2022/05/04 09:48:35;;;;;;;20.50;10.57;;;;;;;10.67;97.13;92796.19;4998926;28;20084;-79
2022/05/04 09:51:22;;;;;;;15.65;8.80;;;;;;;10.68;96.07;92788.06;5017931;28;20053;-82
2022/05/04 09:53:47;;;;;;;15.60;7.20;;;;;;;10.69;93.69;92799.31;5001910;28;20037;-80
2022/05/04 09:56:13;;;;;;;12.32;7.00;;;;;;;10.63;93.42;92796.75;5002206;28;20034;-80
2022/05/04 10:02:03;;;;;;;12.25;6.90;;;;;;;10.54;95.06;92798.44;5021459;28;20042;-83
2022/05/04 10:04:34;;;;;;;14.80;7.20;;;;;;;10.48;96.32;92804.75;5005734;28;20081;-82
2022/05/04 10:07:03;;;;;;;12.18;6.70;;;;;;;10.45;95.00;92800.09;5004854;28;20038;-82
2022/05/04 10:09:30;;;;;;;13.43;7.68;;;;;;;10.30;93.94;92810.69;4986887;28;20030;-81
2022/05/04 10:11:57;;;;;;;14.63;8.20;;;;;;;10.17;95.42;92789.31;4989766;28;20037;-83
2022/05/04 10:14:28;;;;;;;15.52;7.22;;;;;;;10.30;95.65;92802.84;5005254;28;20045;-81
2022/05/04 10:17:04;;;;;;;12.13;6.00;;;;;;;10.22;93.75;92798.94;5005476;28;20120;-83
2022/05/04 10:22:59;;;;;;;12.60;5.20;;;;;;;10.22;91.09;92812.03;5022667;28;20037;-82
2022/05/04 10:25:44;;;;;;;10.38;4.93;;;;;;;10.10;90.17;92801.16;5023312;28;20052;-81
2022/05/04 10:31:34;;;;;;;7.13;4.38;;;;;;;10.03;88.73;92809.31;5035604;28;20040;-81
2022/05/04 10:34:02;;;;;;;13.50;4.82;;;;;;;10.10;88.17;92807.16;5036327;28;20026;-80
2022/05/04 10:44:10;;;;;;;9.45;4.28;;;;;;;10.30;87.49;92808.84;5037526;28;20052;-82
2022/05/04 10:46:41;;;;;;;7.60;4.60;;;;;;;10.39;88.21;92807.19;5036653;28;20042;-81
2022/05/04 10:49:44;;;;;;;6.70;4.10;;;;;;;10.46;87.21;92795.63;5019537;28;20034;-81
2022/05/04 10:52:10;;;;;;;6.57;3.83;;;;;;;10.48;86.83;92793.53;5018757;28;20095;-81
2022/05/04 10:55:14;;;;;;;6.07;3.65;;;;;;;10.54;87.34;92792.41;5019825;28;20022;-81
2022/05/04 10:57:42;;;;;;;4.90;3.38;;;;;;;10.58;87.85;92790.78;5035314;28;20030;-80
2022/05/04 11:00:10;;;;;;;5.85;3.35;;;;;;;10.63;87.02;92798.59;4974119;28;20472;-80
2022/05/04 11:06:03;;;;;;;6.43;2.95;;;;;;;10.77;88.18;92801.34;5022781;28;20064;-81
2022/05/04 11:08:35;;;;;;;7.90;3.50;;;;;;;10.76;85.02;92797.13;5004848;28;20030;-81
2022/05/04 11:11:03;;;;;;;5.28;3.47;;;;;;;10.77;85.14;92801.34;4988825;28;20053;-81
2022/05/04 11:13:31;;;;;;;5.70;3.75;;;;;;;10.71;84.97;92797.97;5003983;28;20041;-81
2022/05/04 11:16:00;;;;;;;6.13;3.55;;;;;;;10.71;85.33;92794.59;5021957;28;20037;-81
2022/05/04 11:18:45;;;;;;;7.20;4.00;;;;;;;10.81;85.02;92802.34;5022773;28;20097;-80
2022/05/04 11:21:15;;;;;;;5.93;4.28;;;;;;;10.82;84.03;92802.03;5021283;28;20038;-80
2022/05/04 11:23:58;;;;;;;7.93;3.60;;;;;;;10.81;83.78;92797.09;5003918;28;20057;-80
2022/05/04 11:26:26;;;;;;;4.88;3.30;;;;;;;10.90;83.89;92794.63;5021295;28;20038;-81
2022/05/04 11:28:53;;;;;;;5.40;3.47;;;;;;;10.88;83.76;92792.31;5019524;28;20028;-80
2022/05/04 11:31:20;;;;;;;4.75;2.95;;;;;;;10.95;83.84;92794.56;5020908;28;20034;-80
2022/05/04 11:33:47;;;;;;;5.60;3.08;;;;;;;10.98;83.64;92802.63;5018823;28;20462;-81
2022/05/04 11:36:16;;;;;;;5.28;2.60;;;;;;;11.08;84.23;92785.22;5020463;28;20113;-80
2022/05/04 11:38:45;;;;;;;6.63;2.80;;;;;;;11.11;84.73;92782.84;5002578;28;20167;-80
2022/05/04 11:41:11;;;;;;;4.95;2.70;;;;;;;11.30;85.16;92798.56;5018585;28;20100;-80
2022/05/04 11:43:37;;;;;;;5.38;2.40;;;;;;;11.41;83.30;92784.28;5019770;28;20050;-80
2022/05/04 11:46:07;;;;;;;4.05;2.25;;;;;;;11.52;82.68;92786.75;5019697;28;20065;-79
2022/05/04 11:48:42;;;;;;;3.10;1.80;;;;;;;11.60;82.01;92773.03;5020450;28;20124;-80
2022/05/04 11:51:09;;;;;;;3.50;2.30;;;;;;;11.85;81.26;92783.13;5019421;28;20495;-80
2022/05/04 11:53:38;;;;;;;4.40;2.63;;;;;;;11.98;78.91;92776.41;5017917;28;20026;-81
2022/05/04 11:56:06;;;;;;;4.93;2.78;;;;;;;12.12;78.74;92776.44;5002896;28;20088;-81
2022/05/04 11:58:33;;;;;;;6.20;3.05;;;;;;;11.84;81.25;92781.56;5003374;28;20041;-80
2022/05/04 12:04:52;;;;;;;4.30;2.50;;;;;;;11.81;81.21;92776.88;5021058;28;20548;-81
2022/05/04 12:10:48;;;;;;;6.15;3.03;;;;;;;12.22;81.13;92768.38;5020133;28;20487;-80
2022/05/04 12:13:18;;;;;;;5.20;2.80;;;;;;;12.61;80.62;92767.19;5019772;28;20029;-79
2022/05/04 12:19:08;;;;;;;7.32;4.10;;;;;;;12.44;83.15;92769.59;5021554;28;20045;-79
2022/05/04 12:21:35;;;;;;;6.88;3.90;;;;;;;12.60;79.63;92759.59;5003740;28;20034;-80
2022/05/04 12:24:01;;;;;;;8.40;4.97;;;;;;;12.55;83.19;92760.44;5023332;28;20526;-80
2022/05/04 12:26:27;;;;;;;7.50;4.75;;;;;;;12.85;83.90;92755.69;5003155;28;20038;-79
2022/05/04 12:35:37;;;;;;;8.05;4.90;;;;;;;13.57;76.42;92748.97;4967495;28;20050;-79
2022/05/04 12:38:04;;;;;;;8.73;5.05;;;;;;;13.56;79.39;92744.78;5018736;28;20056;-80
2022/05/04 12:40:31;;;;;;;8.82;4.72;;;;;;;13.50;79.48;92742.25;5018357;28;20030;-79
2022/05/04 12:43:03;;;;;;;8.98;5.50;;;;;;;13.65;81.48;92749.03;5018232;28;20511;-80
2022/05/04 12:45:30;;;;;;;8.15;5.28;;;;;;;13.39;81.88;92740.91;5017818;28;20068;-80
2022/05/04 12:47:57;;;;;;;8.75;4.85;;;;;;;13.49;79.70;92743.34;5016743;28;20380;-80
2022/05/04 12:50:24;;;;;;;7.65;4.65;;;;;;;13.43;78.94;92747.16;5016993;28;20506;-80
2022/05/04 12:52:51;;;;;;;10.48;4.90;;;;;;;13.58;82.70;92755.75;5017413;28;20053;-80
2022/05/04 12:55:18;;;;;;;8.57;4.80;;;;;;;13.52;76.28;92745.38;5016095;28;20057;-81
2022/05/04 12:57:49;;;;;;;10.30;4.13;;;;;;;13.66;76.80;92752.44;5016669;28;20041;-80
2022/05/04 13:00:15;;;;;;;13.20;3.92;;;;;;;13.99;76.43;92746.94;5017918;28;20042;-80
2022/05/04 13:02:42;;;;;;;6.32;4.43;;;;;;;13.82;71.33;92751.00;4999980;28;20108;-80
2022/05/04 13:05:09;;;;;;;6.68;4.10;;;;;;;13.85;72.13;92750.41;5016721;28;20065;-80
2022/05/04 13:07:36;;;;;;;6.68;4.30;;;;;;;13.65;75.83;92735.88;5016377;28;20026;-79
2022/05/04 13:10:03;;;;;;;9.63;4.70;;;;;;;13.69;73.46;92749.19;5016699;28;20037;-80
2022/05/04 13:12:31;;;;;;;10.98;4.53;;;;;;;13.41;77.61;92746.66;5017151;28;20034;-80
2022/05/04 13:14:57;;;;;;;9.15;4.10;;;;;;;13.60;72.80;92740.47;5017839;28;20080;-81
2022/05/04 13:17:23;;;;;;;7.20;3.95;;;;;;;13.68;68.30;92737.91;5017278;28;20041;-80
2022/05/04 13:19:50;;;;;;;6.15;3.63;;;;;;;13.52;66.55;92744.59;5018143;28;20060;-80
2022/05/04 13:22:16;;;;;;;5.63;3.70;;;;;;;13.46;75.75;92743.91;5017481;28;20033;-80